createdAt,value
2019-01-28T00:02:15.828Z,3.90
2019-01-28T00:05:20.964Z,3.97
2019-01-28T00:08:26.082Z,4.73
2019-01-28T00:11:31.118Z,4.33
2019-01-28T00:14:36.236Z,3.00
2019-01-28T00:17:41.379Z,2.07
2019-01-28T00:20:46.499Z,1.63
2019-01-28T00:23:51.532Z,1.80
2019-01-28T00:26:56.687Z,2.43
2019-01-28T00:30:01.735Z,1.80
2019-01-28T00:33:06.858Z,1.93
2019-01-28T00:36:11.827Z,1.70
2019-01-28T00:39:16.975Z,1.90
2019-01-28T00:42:22.024Z,2.33
2019-01-28T00:45:27.080Z,2.10
2019-01-28T00:48:32.103Z,2.23
2019-01-28T00:51:37.236Z,2.40
2019-01-28T00:54:42.204Z,2.77
2019-01-28T00:57:47.279Z,2.00
2019-01-28T01:00:52.412Z,2.97
2019-01-28T01:03:57.503Z,2.87
2019-01-28T01:07:02.644Z,2.40
2019-01-28T01:10:09.153Z,2.77
2019-01-28T01:13:14.254Z,2.40
2019-01-28T01:16:19.461Z,3.17
2019-01-28T01:19:24.513Z,3.00
2019-01-28T01:22:29.556Z,2.37
2019-01-28T01:25:34.662Z,2.70
2019-01-28T01:28:39.715Z,3.27
2019-01-28T01:31:44.766Z,3.03
2019-01-28T01:34:49.811Z,2.90
2019-01-28T01:37:54.924Z,3.00
2019-01-28T01:40:59.958Z,3.00
2019-01-28T01:44:05.144Z,3.47
2019-01-28T01:47:10.239Z,3.50
2019-01-28T01:50:15.446Z,3.00
2019-01-28T01:53:20.856Z,3.27
2019-01-28T01:56:26.018Z,3.00
2019-01-28T01:59:31.083Z,3.50
2019-01-28T02:02:36.168Z,3.10
2019-01-28T02:05:41.439Z,3.00
2019-01-28T02:08:46.660Z,3.70
2019-01-28T02:11:51.775Z,3.00
2019-01-28T02:14:56.855Z,3.00
2019-01-28T02:18:02.003Z,3.50
2019-01-28T02:21:07.152Z,3.20
2019-01-28T02:24:12.287Z,4.30
2019-01-28T02:27:17.404Z,4.03
2019-01-28T02:30:22.453Z,4.30
2019-01-28T02:33:27.428Z,4.00
2019-01-28T02:36:32.529Z,5.10
2019-01-28T02:39:37.646Z,4.73
2019-01-28T02:42:42.782Z,5.10
2019-01-28T02:45:47.903Z,4.67
2019-01-28T02:48:53.073Z,5.60
2019-01-28T02:51:58.247Z,5.43
2019-01-28T02:55:03.375Z,5.20
2019-01-28T02:58:08.512Z,4.63
2019-01-28T03:01:13.559Z,4.67
2019-01-28T03:04:18.554Z,4.90
2019-01-28T03:07:23.731Z,5.67
2019-01-28T03:10:29.077Z,4.70
2019-01-28T03:13:34.127Z,4.50
2019-01-28T03:16:39.275Z,4.60
2019-01-28T03:19:44.413Z,4.20
2019-01-28T03:22:49.613Z,4.33
2019-01-28T03:25:54.815Z,4.10
2019-01-28T03:28:59.857Z,4.83
2019-01-28T03:32:05.001Z,5.27
2019-01-28T03:35:10.315Z,4.90
2019-01-28T03:38:15.459Z,5.60
2019-01-28T03:41:20.581Z,4.43
2019-01-28T03:44:25.710Z,5.80
2019-01-28T03:47:30.864Z,5.97
2019-01-28T03:50:35.980Z,5.47
2019-01-28T03:53:41.390Z,4.97
2019-01-28T03:56:46.531Z,4.20
2019-01-28T03:59:51.680Z,4.57
2019-01-28T04:02:57.090Z,4.60
2019-01-28T04:06:02.226Z,4.30
2019-01-28T04:09:09.368Z,4.00
2019-01-28T04:12:14.437Z,4.37
2019-01-28T04:15:20.260Z,5.27
2019-01-28T04:18:25.365Z,3.97
2019-01-28T04:21:30.484Z,4.10
2019-01-28T04:24:35.467Z,3.47
2019-01-28T04:27:40.589Z,2.90
2019-01-28T04:30:45.724Z,2.93
2019-01-28T04:33:50.836Z,2.60
2019-01-28T04:36:55.969Z,3.30
2019-01-28T04:40:01.025Z,2.50
2019-01-28T04:43:06.162Z,3.33
2019-01-28T04:46:11.303Z,2.73
2019-01-28T04:49:16.348Z,2.73
2019-01-28T04:52:21.475Z,2.50
2019-01-28T04:55:26.676Z,2.40
2019-01-28T04:58:31.789Z,2.30
2019-01-28T05:01:36.913Z,2.10
2019-01-28T05:04:42.072Z,2.33
2019-01-28T05:07:47.191Z,2.37
2019-01-28T05:10:52.323Z,2.47
2019-01-28T05:13:57.363Z,2.30
2019-01-28T05:17:02.443Z,2.20
2019-01-28T05:20:09.476Z,4.00
2019-01-28T05:23:14.761Z,2.57
2019-01-28T05:26:19.940Z,2.50
2019-01-28T05:29:26.006Z,2.47
2019-01-28T05:32:31.590Z,2.80
2019-01-28T05:35:36.907Z,2.43
2019-01-28T05:38:42.282Z,2.40
2019-01-28T05:41:47.692Z,2.20
2019-01-28T05:44:53.088Z,2.20
2019-01-28T05:47:58.224Z,2.67
2019-01-28T05:51:03.699Z,2.67
2019-01-28T05:54:09.122Z,2.80
2019-01-28T05:57:14.285Z,2.77
2019-01-28T06:00:27.729Z,2.20
2019-01-28T06:03:33.212Z,2.47
2019-01-28T06:06:38.398Z,2.10
2019-01-28T06:09:43.440Z,3.27
2019-01-28T06:12:48.644Z,2.77
2019-01-28T06:15:54.179Z,2.27
2019-01-28T06:18:59.746Z,3.30
2019-01-28T06:22:04.941Z,2.63
2019-01-28T06:25:10.244Z,2.73
2019-01-28T06:28:15.606Z,2.53
2019-01-28T06:31:20.853Z,2.50
2019-01-28T06:34:25.900Z,2.40
2019-01-28T06:37:31.010Z,2.33
2019-01-28T06:40:36.492Z,2.60
2019-01-28T06:43:41.635Z,2.63
2019-01-28T06:46:46.769Z,2.67
2019-01-28T06:49:51.803Z,2.33
2019-01-28T06:52:56.966Z,2.37
2019-01-28T06:56:02.154Z,1.90
2019-01-28T06:59:07.244Z,2.70
2019-01-28T07:02:12.376Z,2.80
2019-01-28T07:05:17.500Z,2.57
2019-01-28T07:08:22.617Z,2.50
2019-01-28T07:11:27.728Z,3.73
2019-01-28T07:14:32.908Z,3.53
2019-01-28T07:17:38.083Z,2.10
2019-01-28T07:20:43.209Z,2.37
2019-01-28T07:23:48.355Z,1.87
2019-01-28T07:26:53.479Z,2.33
2019-01-28T07:29:58.511Z,2.40
2019-01-28T07:33:03.608Z,2.93
2019-01-28T07:36:08.699Z,2.23
2019-01-28T07:39:13.847Z,2.60
2019-01-28T07:42:18.859Z,3.43
2019-01-28T07:45:35.160Z,2.77
2019-01-28T07:48:40.268Z,2.60
2019-01-28T07:51:45.356Z,4.00
2019-01-28T07:54:50.396Z,3.13
2019-01-28T07:57:55.531Z,1.80
2019-01-28T08:01:00.623Z,2.00
2019-01-28T08:04:06.032Z,2.00
2019-01-28T08:07:11.110Z,2.40
2019-01-28T08:10:17.130Z,2.00
2019-01-28T08:13:22.311Z,2.50
2019-01-28T08:16:27.335Z,2.43
2019-01-28T08:19:32.452Z,2.07
2019-01-28T08:22:37.539Z,3.60
2019-01-28T08:25:42.644Z,1.90
2019-01-28T08:28:47.775Z,2.33
2019-01-28T08:31:53.015Z,2.27
2019-01-28T08:34:58.138Z,1.97
2019-01-28T08:38:03.314Z,1.93
2019-01-28T08:41:08.431Z,1.93
2019-01-28T08:44:13.454Z,2.10
2019-01-28T08:47:18.510Z,1.67
2019-01-28T08:50:24.276Z,1.60
2019-01-28T08:53:29.324Z,2.40
2019-01-28T08:56:34.462Z,2.33
2019-01-28T08:59:39.594Z,1.70
2019-01-28T09:02:44.695Z,1.97
2019-01-28T09:05:49.919Z,1.40
2019-01-28T09:08:55.052Z,1.93
2019-01-28T09:12:00.067Z,1.93
2019-01-28T09:15:05.815Z,3.07
2019-01-28T09:18:12.437Z,1.60
2019-01-28T09:21:17.553Z,2.97
2019-01-28T09:24:22.659Z,2.23
2019-01-28T09:27:27.738Z,1.70
2019-01-28T09:30:33.336Z,1.60
2019-01-28T09:33:38.448Z,1.27
2019-01-28T09:36:43.572Z,1.00
2019-01-28T09:39:48.760Z,1.27
2019-01-28T09:42:53.868Z,1.40
2019-01-28T09:45:58.974Z,1.20
2019-01-28T09:49:04.076Z,1.27
2019-01-28T09:52:09.187Z,1.53
2019-01-28T09:55:14.577Z,1.23
2019-01-28T09:58:19.690Z,1.40
2019-01-28T10:01:24.645Z,2.23
2019-01-28T10:04:29.730Z,1.90
2019-01-28T10:07:34.844Z,1.83
2019-01-28T10:10:39.960Z,1.87
2019-01-28T10:13:45.034Z,2.00
2019-01-28T10:16:50.090Z,1.83
2019-01-28T10:19:55.111Z,1.60
2019-01-28T10:23:00.210Z,1.57
2019-01-28T10:26:05.381Z,1.90
2019-01-28T10:29:10.475Z,2.07
2019-01-28T10:32:15.503Z,1.80
2019-01-28T10:35:22.961Z,2.40
2019-01-28T10:38:28.074Z,2.10
2019-01-28T10:41:33.164Z,1.93
2019-01-28T10:44:38.258Z,1.30
2019-01-28T10:47:43.342Z,1.20
2019-01-28T10:50:48.452Z,2.60
2019-01-28T10:53:53.607Z,1.90
2019-01-28T10:56:58.713Z,1.50
2019-01-28T11:00:05.505Z,2.80
2019-01-28T11:03:11.755Z,2.00
2019-01-28T11:06:16.864Z,1.70
2019-01-28T11:09:21.891Z,1.93
2019-01-28T11:12:27.005Z,1.20
2019-01-28T11:15:32.180Z,1.03
2019-01-28T11:18:37.447Z,0.90
2019-01-28T11:21:42.559Z,1.30
2019-01-28T11:24:47.691Z,1.10
2019-01-28T11:27:52.794Z,1.67
2019-01-28T11:31:07.354Z,1.10
2019-01-28T11:34:12.564Z,1.40
2019-01-28T11:37:17.743Z,1.13
2019-01-28T11:40:23.093Z,1.50
2019-01-28T11:43:28.309Z,1.30
2019-01-28T11:46:33.469Z,1.43
2019-01-28T11:49:38.803Z,2.80
2019-01-28T11:52:43.915Z,1.40
2019-01-28T11:55:49.012Z,1.30
2019-01-28T11:58:54.054Z,0.90
2019-01-28T12:01:59.158Z,1.40
2019-01-28T12:05:05.007Z,1.13
2019-01-28T12:08:10.199Z,0.90
2019-01-28T12:11:15.287Z,1.20
2019-01-28T12:14:20.322Z,1.30
2019-01-28T12:17:25.428Z,0.87
2019-01-28T12:20:30.520Z,1.00
2019-01-28T12:23:35.631Z,0.97
2019-01-28T12:26:40.730Z,1.00
2019-01-28T12:29:45.833Z,1.20
2019-01-28T12:32:50.911Z,1.20
2019-01-28T12:35:55.895Z,1.10
2019-01-28T12:39:00.990Z,1.03
2019-01-28T12:42:06.091Z,0.90
2019-01-28T12:45:13.683Z,1.20
2019-01-28T12:48:18.786Z,1.10
2019-01-28T12:51:23.829Z,1.17
2019-01-28T12:54:28.842Z,0.80
2019-01-28T12:57:33.943Z,1.13
2019-01-28T13:00:41.393Z,1.30
2019-01-28T13:03:46.892Z,1.20
2019-01-28T13:06:51.927Z,1.10
2019-01-28T13:09:57.023Z,1.73
2019-01-28T13:13:02.060Z,1.47
2019-01-28T13:16:07.318Z,1.53
2019-01-28T13:19:12.415Z,1.50
2019-01-28T13:22:17.378Z,1.63
2019-01-28T13:25:23.637Z,1.70
2019-01-28T13:28:28.734Z,1.20
2019-01-28T13:31:33.832Z,1.40
2019-01-28T13:34:38.881Z,1.07
2019-01-28T13:37:43.978Z,0.90
2019-01-28T13:40:49.023Z,2.37
2019-01-28T13:43:54.067Z,1.03
2019-01-28T13:46:59.168Z,1.07
2019-01-28T13:50:05.584Z,1.00
2019-01-28T13:53:10.803Z,1.10
2019-01-28T13:56:16.731Z,1.20
2019-01-28T13:59:21.815Z,0.83
2019-01-28T14:02:26.968Z,1.00
2019-01-28T14:05:32.089Z,1.40
2019-01-28T14:08:37.214Z,1.20
2019-01-28T14:11:42.313Z,1.10
2019-01-28T14:14:47.351Z,1.20
2019-01-28T14:17:52.471Z,1.10
2019-01-28T14:21:00.555Z,1.43
2019-01-28T14:24:05.783Z,1.00
2019-01-28T14:27:11.075Z,1.90
2019-01-28T14:30:25.389Z,1.40
2019-01-28T14:33:30.556Z,1.57
2019-01-28T14:36:35.751Z,1.70
2019-01-28T14:39:40.848Z,1.23
2019-01-28T14:42:45.947Z,1.57
2019-01-28T14:45:50.963Z,1.90
2019-01-28T14:48:55.995Z,1.60
2019-01-28T14:52:01.083Z,1.50
2019-01-28T14:55:06.623Z,2.17
2019-01-28T14:58:16.534Z,2.20
2019-01-28T15:01:19.657Z,2.30
2019-01-28T15:04:24.772Z,2.63
2019-01-28T15:07:29.793Z,2.30
2019-01-28T15:10:35.139Z,2.60
2019-01-28T15:13:40.265Z,1.97
2019-01-28T15:16:45.412Z,1.60
2019-01-28T15:19:50.942Z,1.50
2019-01-28T15:22:56.107Z,1.60
2019-01-28T15:26:01.239Z,1.40
2019-01-28T15:29:06.363Z,1.60
2019-01-28T15:32:11.483Z,2.00
2019-01-28T15:35:16.603Z,1.93
2019-01-28T15:38:21.781Z,1.87
2019-01-28T15:41:26.895Z,2.10
2019-01-28T15:44:31.927Z,2.00
2019-01-28T15:47:37.051Z,1.60
2019-01-28T15:50:42.171Z,1.27
2019-01-28T15:53:47.571Z,1.40
2019-01-28T15:56:52.674Z,1.60
2019-01-28T15:59:57.856Z,1.90
2019-01-28T16:03:03.575Z,2.10
2019-01-28T16:06:08.677Z,1.80
2019-01-28T16:09:13.772Z,2.20
2019-01-28T16:12:18.791Z,2.30
2019-01-28T16:15:37.787Z,2.33
2019-01-28T16:18:42.902Z,3.20
2019-01-28T16:21:48.058Z,2.50
2019-01-28T16:24:53.087Z,3.07
2019-01-28T16:27:58.111Z,4.50
2019-01-28T16:31:03.233Z,4.53
2019-01-28T16:34:08.342Z,2.90
2019-01-28T16:37:13.427Z,3.37
2019-01-28T16:40:19.911Z,3.40
2019-01-28T16:43:25.012Z,2.60
2019-01-28T16:46:30.132Z,2.60
2019-01-28T16:49:35.232Z,2.83
2019-01-28T16:52:40.394Z,2.80
2019-01-28T16:55:45.493Z,2.57
2019-01-28T16:58:50.668Z,2.80
2019-01-28T17:01:55.646Z,2.90
2019-01-28T17:05:00.657Z,3.07
2019-01-28T17:08:06.011Z,2.80
2019-01-28T17:11:11.125Z,3.70
2019-01-28T17:14:16.864Z,4.13
2019-01-28T17:17:21.956Z,5.23
2019-01-28T17:20:35.199Z,3.60
2019-01-28T17:23:35.232Z,5.13
2019-01-28T17:26:40.272Z,4.30
2019-01-28T17:29:45.444Z,4.53
2019-01-28T17:32:50.542Z,4.50
2019-01-28T17:35:55.727Z,4.70
2019-01-28T17:39:00.818Z,4.40
2019-01-28T17:42:06.132Z,4.67
2019-01-28T17:45:13.255Z,5.10
2019-01-28T17:48:18.498Z,5.30
2019-01-28T17:51:23.595Z,4.50
2019-01-28T17:54:28.571Z,5.23
2019-01-28T17:57:33.667Z,5.30
2019-01-28T18:00:55.891Z,5.07
2019-01-28T18:04:00.944Z,4.33
2019-01-28T18:07:06.053Z,4.70
2019-01-28T18:10:12.119Z,4.90
2019-01-28T18:13:17.318Z,4.73
2019-01-28T18:16:22.406Z,4.40
2019-01-28T18:19:27.524Z,4.20
2019-01-28T18:22:42.143Z,5.23
2019-01-28T18:25:47.251Z,4.37
2019-01-28T18:28:52.381Z,3.30
2019-01-28T18:31:57.484Z,4.80
2019-01-28T18:35:02.594Z,4.20
2019-01-28T18:38:07.847Z,5.30
2019-01-28T18:41:13.043Z,5.40
2019-01-28T18:44:17.994Z,4.30
2019-01-28T18:47:23.122Z,4.17
2019-01-28T18:50:28.334Z,4.20
2019-01-28T18:53:33.372Z,4.03
2019-01-28T18:56:38.476Z,3.60
2019-01-28T18:59:43.529Z,4.03
2019-01-28T19:02:48.566Z,4.40
2019-01-28T19:06:10.971Z,5.10
2019-01-28T19:09:41.112Z,6.10
2019-01-28T19:12:52.036Z,5.50
2019-01-28T19:16:16.221Z,5.40
2019-01-28T19:19:40.319Z,5.00
2019-01-28T19:22:45.443Z,3.83
2019-01-28T19:25:50.565Z,4.73
2019-01-28T19:28:55.695Z,4.37
2019-01-28T19:32:00.671Z,4.80
2019-01-28T19:35:05.984Z,4.10
2019-01-28T19:38:10.951Z,4.93
2019-01-28T19:41:16.073Z,4.50
2019-01-28T19:44:21.174Z,3.93
2019-01-28T19:47:26.354Z,5.23
2019-01-28T19:50:31.521Z,5.80
2019-01-28T19:53:36.627Z,5.10
2019-01-28T19:56:41.748Z,5.30
2019-01-28T19:59:46.810Z,6.87
2019-01-28T20:02:51.997Z,5.13
2019-01-28T20:05:57.051Z,4.70
2019-01-28T20:09:02.248Z,5.10
2019-01-28T20:12:07.342Z,4.67
2019-01-28T20:15:13.979Z,5.37
2019-01-28T20:18:19.143Z,4.73
2019-01-28T20:21:24.261Z,5.43
2019-01-28T20:24:29.367Z,4.50
2019-01-28T20:27:34.508Z,5.33
2019-01-28T20:30:39.655Z,4.87
2019-01-28T20:33:44.695Z,4.80
2019-01-28T20:36:49.851Z,5.00
2019-01-28T20:39:55.020Z,5.83
2019-01-28T20:43:00.163Z,6.37
2019-01-28T20:46:05.618Z,6.30
2019-01-28T20:49:11.367Z,6.37
2019-01-28T20:52:16.553Z,8.30
2019-01-28T20:55:21.916Z,8.23
2019-01-28T20:58:27.079Z,7.90
2019-01-28T21:01:32.241Z,6.93
2019-01-28T21:04:37.544Z,8.00
2019-01-28T21:07:42.776Z,6.97
2019-01-28T21:10:47.923Z,8.77
2019-01-28T21:13:53.074Z,7.20
2019-01-28T21:16:58.202Z,7.80
2019-01-28T21:20:03.475Z,7.23
2019-01-28T21:23:08.691Z,8.97
2019-01-28T21:26:13.916Z,8.17
2019-01-28T21:29:19.068Z,6.93
2019-01-28T21:32:24.337Z,7.70
2019-01-28T21:35:48.647Z,6.83
2019-01-28T21:38:54.191Z,7.00
2019-01-28T21:41:59.310Z,7.40
2019-01-28T21:45:06.290Z,6.10
2019-01-28T21:48:11.649Z,6.97
2019-01-28T21:51:16.796Z,7.70
2019-01-28T21:54:21.926Z,8.37
2019-01-28T21:57:27.112Z,7.90
2019-01-28T22:00:32.218Z,8.53
2019-01-28T22:03:37.439Z,6.10
2019-01-28T22:06:42.496Z,9.83
2019-01-28T22:09:47.952Z,8.23
2019-01-28T22:12:53.099Z,11.90
2019-01-28T22:15:58.179Z,9.60
2019-01-28T22:19:03.259Z,9.37
2019-01-28T22:22:08.383Z,9.50
2019-01-28T22:25:13.844Z,12.10
2019-01-28T22:28:19.019Z,7.70
2019-01-28T22:31:24.131Z,10.00
2019-01-28T22:34:29.159Z,9.03
2019-01-28T22:37:34.248Z,9.07
2019-01-28T22:40:39.394Z,8.17
2019-01-28T22:43:44.506Z,7.20
2019-01-28T22:46:50.209Z,5.37
2019-01-28T22:49:55.214Z,6.07
2019-01-28T22:53:00.312Z,6.90
2019-01-28T22:56:05.436Z,5.23
2019-01-28T22:59:10.523Z,4.63
2019-01-28T23:02:15.558Z,5.70
2019-01-28T23:05:20.773Z,6.53
2019-01-28T23:08:25.803Z,6.03
2019-01-28T23:11:30.911Z,5.10
2019-01-28T23:14:35.941Z,5.00
2019-01-28T23:17:41.060Z,5.73
2019-01-28T23:20:46.096Z,5.60
2019-01-28T23:23:51.211Z,5.47
2019-01-28T23:26:56.276Z,5.50
2019-01-28T23:30:01.276Z,5.57
2019-01-28T23:33:06.616Z,6.20
2019-01-28T23:36:11.768Z,7.17
2019-01-28T23:39:16.762Z,7.57
2019-01-28T23:42:21.886Z,7.53
2019-01-28T23:45:27.305Z,6.97
2019-01-28T23:48:33.456Z,7.33
2019-01-28T23:51:38.584Z,8.17
2019-01-28T23:54:43.702Z,7.10
2019-01-28T23:57:56.423Z,7.00
